createdAt,value
2017-12-06T00:00:16.190Z,21.97
2017-12-06T00:02:44.286Z,23.27
2017-12-06T00:05:12.394Z,23.60
2017-12-06T00:07:40.471Z,22.63
2017-12-06T00:10:08.563Z,23.27
2017-12-06T00:12:42.212Z,22.47
2017-12-06T00:15:16.629Z,22.15
2017-12-06T00:17:45.474Z,21.25
2017-12-06T00:20:13.574Z,21.90
2017-12-06T00:22:41.659Z,22.50
2017-12-06T00:25:10.514Z,22.77
2017-12-06T00:27:38.599Z,22.25
2017-12-06T00:30:06.699Z,23.20
2017-12-06T00:32:34.800Z,21.80
2017-12-06T00:35:02.911Z,22.40
2017-12-06T00:37:31.011Z,21.42
2017-12-06T00:39:59.096Z,20.37
2017-12-06T00:42:27.279Z,21.30
2017-12-06T00:44:55.372Z,21.23
2017-12-06T00:47:23.472Z,20.50
2017-12-06T00:49:51.568Z,23.23
2017-12-06T00:52:19.670Z,21.77
2017-12-06T00:54:47.765Z,21.07
2017-12-06T00:57:15.865Z,23.10
2017-12-06T00:59:43.956Z,21.57
2017-12-06T01:02:12.800Z,21.73
2017-12-06T01:04:40.901Z,20.50
2017-12-06T01:07:09.755Z,24.77
2017-12-06T01:09:37.834Z,22.30
2017-12-06T01:12:05.937Z,22.40
2017-12-06T01:14:34.798Z,24.17
2017-12-06T01:17:02.874Z,23.80
2017-12-06T01:19:30.968Z,21.30
2017-12-06T01:21:59.048Z,22.63
2017-12-06T01:24:27.133Z,24.40
2017-12-06T01:26:55.221Z,23.63
2017-12-06T01:29:23.549Z,22.58
2017-12-06T01:31:52.407Z,22.70
2017-12-06T01:34:20.507Z,24.45
2017-12-06T01:36:49.367Z,22.75
2017-12-06T01:39:17.472Z,23.77
2017-12-06T01:41:45.568Z,26.33
2017-12-06T01:44:13.656Z,25.90
2017-12-06T01:46:41.749Z,25.60
2017-12-06T01:49:09.831Z,23.75
2017-12-06T01:51:37.919Z,25.80
2017-12-06T01:54:06.780Z,24.30
2017-12-06T01:56:34.864Z,25.37
2017-12-06T01:59:03.720Z,23.80
2017-12-06T02:01:31.823Z,25.40
2017-12-06T02:04:00.683Z,25.73
2017-12-06T02:06:28.792Z,25.70
2017-12-06T02:08:57.656Z,25.67
2017-12-06T02:11:25.747Z,25.80
2017-12-06T02:13:54.598Z,27.30
2017-12-06T02:16:22.699Z,26.40
2017-12-06T02:18:51.564Z,25.40
2017-12-06T02:21:19.667Z,25.02
2017-12-06T02:23:48.793Z,26.20
2017-12-06T02:26:16.886Z,23.92
2017-12-06T02:28:44.967Z,23.07
2017-12-06T02:31:13.061Z,24.13
2017-12-06T02:33:41.151Z,25.07
2017-12-06T02:36:09.996Z,25.47
2017-12-06T02:38:38.416Z,25.57
2017-12-06T02:41:18.988Z,23.40
2017-12-06T02:43:58.873Z,22.00
2017-12-06T02:46:26.958Z,22.67
2017-12-06T02:48:55.046Z,24.35
2017-12-06T02:51:23.146Z,22.07
2017-12-06T02:53:51.239Z,24.70
2017-12-06T02:56:19.331Z,21.47
2017-12-06T02:58:47.427Z,23.12
2017-12-06T03:01:15.502Z,21.37
2017-12-06T03:03:44.358Z,21.03
2017-12-06T03:06:12.447Z,23.70
2017-12-06T03:08:40.704Z,21.12
2017-12-06T03:11:08.852Z,19.60
2017-12-06T03:13:36.939Z,20.52
2017-12-06T03:16:05.035Z,20.85
2017-12-06T03:18:33.132Z,21.23
2017-12-06T03:21:01.991Z,19.90
2017-12-06T03:23:30.079Z,21.15
2017-12-06T03:25:58.927Z,22.20
2017-12-06T03:28:27.031Z,24.15
2017-12-06T03:30:55.112Z,21.87
2017-12-06T03:33:23.984Z,21.73
2017-12-06T03:35:52.062Z,20.52
2017-12-06T03:38:20.947Z,18.20
2017-12-06T03:40:49.037Z,18.60
2017-12-06T03:43:17.890Z,17.20
2017-12-06T03:45:45.983Z,16.08
2017-12-06T03:48:14.855Z,15.82
2017-12-06T03:50:42.935Z,16.00
2017-12-06T03:53:11.827Z,15.90
2017-12-06T03:55:39.915Z,16.15
2017-12-06T03:58:08.784Z,15.20
2017-12-06T04:00:36.903Z,14.98
2017-12-06T04:03:05.000Z,14.25
2017-12-06T04:05:33.424Z,12.80
2017-12-06T04:08:02.279Z,14.25
2017-12-06T04:10:30.366Z,14.60
2017-12-06T04:12:59.238Z,13.62
2017-12-06T04:15:27.339Z,13.90
2017-12-06T04:17:56.215Z,13.65
2017-12-06T04:20:25.085Z,13.73
2017-12-06T04:22:53.310Z,13.67
2017-12-06T04:25:21.411Z,12.80
2017-12-06T04:27:49.507Z,13.07
2017-12-06T04:30:17.606Z,12.33
2017-12-06T04:32:45.707Z,13.13
2017-12-06T04:35:13.795Z,12.95
2017-12-06T04:37:41.892Z,13.10
2017-12-06T04:40:09.987Z,13.73
2017-12-06T04:42:38.834Z,14.40
2017-12-06T04:45:06.935Z,13.30
2017-12-06T04:47:35.802Z,13.73
2017-12-06T04:50:03.894Z,14.10
2017-12-06T04:52:32.785Z,12.95
2017-12-06T04:55:01.685Z,13.43
2017-12-06T04:57:30.528Z,13.68
2017-12-06T04:59:58.621Z,13.70
2017-12-06T05:02:26.714Z,13.40
2017-12-06T05:04:55.633Z,13.27
2017-12-06T05:07:23.723Z,15.00
2017-12-06T05:09:51.824Z,12.63
2017-12-06T05:12:19.919Z,14.20
2017-12-06T05:14:48.008Z,13.30
2017-12-06T05:17:16.110Z,13.20
2017-12-06T05:19:44.211Z,13.52
2017-12-06T05:22:12.306Z,14.20
2017-12-06T05:24:40.399Z,13.57
2017-12-06T05:27:08.521Z,13.82
2017-12-06T05:29:36.601Z,12.20
2017-12-06T05:32:05.461Z,14.35
2017-12-06T05:34:33.563Z,13.60
2017-12-06T05:37:02.436Z,13.77
2017-12-06T05:39:30.525Z,15.37
2017-12-06T05:41:59.378Z,15.57
2017-12-06T05:44:27.492Z,16.17
2017-12-06T05:46:56.339Z,14.43
2017-12-06T05:49:24.466Z,12.80
2017-12-06T05:51:52.554Z,14.80
2017-12-06T05:54:20.655Z,14.20
2017-12-06T05:56:48.751Z,14.07
2017-12-06T05:59:17.599Z,15.20
2017-12-06T06:01:45.687Z,13.90
2017-12-06T06:04:13.783Z,14.10
2017-12-06T06:06:42.627Z,15.73
2017-12-06T06:09:10.738Z,13.00
2017-12-06T06:11:39.588Z,15.20
2017-12-06T06:14:07.695Z,15.33
2017-12-06T06:16:36.549Z,14.23
2017-12-06T06:19:04.644Z,14.80
2017-12-06T06:21:33.564Z,14.60
2017-12-06T06:24:01.662Z,14.77
2017-12-06T06:26:29.735Z,14.13
2017-12-06T06:28:57.836Z,14.57
2017-12-06T06:31:25.924Z,15.40
2017-12-06T06:33:54.779Z,15.63
2017-12-06T06:36:22.868Z,14.70
2017-12-06T06:38:51.723Z,15.07
2017-12-06T06:41:19.818Z,16.40
2017-12-06T06:43:47.903Z,17.50
2017-12-06T06:46:16.775Z,15.40
2017-12-06T06:48:44.866Z,16.40
2017-12-06T06:51:13.728Z,16.10
2017-12-06T06:53:41.814Z,14.60
2017-12-06T06:56:09.927Z,15.47
2017-12-06T06:58:38.009Z,15.07
2017-12-06T07:01:06.098Z,15.83
2017-12-06T07:03:34.199Z,14.43
2017-12-06T07:06:03.052Z,16.03
2017-12-06T07:08:31.143Z,15.43
2017-12-06T07:10:59.222Z,14.83
2017-12-06T07:13:27.315Z,15.17
2017-12-06T07:15:56.169Z,15.07
2017-12-06T07:18:26.031Z,14.97
2017-12-06T07:20:54.165Z,15.20
2017-12-06T07:23:22.231Z,15.23
2017-12-06T07:25:50.310Z,14.60
2017-12-06T07:28:19.170Z,16.73
2017-12-06T07:30:47.255Z,14.43
2017-12-06T07:33:15.371Z,14.32
2017-12-06T07:35:43.467Z,14.87
2017-12-06T07:38:11.563Z,14.95
2017-12-06T07:40:39.642Z,14.73
2017-12-06T07:43:07.731Z,17.17
2017-12-06T07:45:36.582Z,14.70
2017-12-06T07:48:04.650Z,15.20
2017-12-06T07:50:32.739Z,14.27
2017-12-06T07:53:00.827Z,14.87
2017-12-06T07:55:29.706Z,16.50
2017-12-06T07:57:58.565Z,14.97
2017-12-06T08:00:26.660Z,18.07
2017-12-06T08:02:55.512Z,15.73
2017-12-06T08:05:23.894Z,14.93
2017-12-06T08:07:52.577Z,16.80
2017-12-06T08:10:20.749Z,14.53
2017-12-06T08:12:48.884Z,17.40
2017-12-06T08:15:17.180Z,14.70
2017-12-06T08:17:45.789Z,16.23
2017-12-06T08:20:13.889Z,16.23
2017-12-06T08:22:42.113Z,16.40
2017-12-06T08:25:10.224Z,15.87
2017-12-06T08:27:38.307Z,16.07
2017-12-06T08:30:07.168Z,15.77
2017-12-06T08:32:35.270Z,15.80
2017-12-06T08:35:04.191Z,15.07
2017-12-06T08:37:32.275Z,15.30
2017-12-06T08:40:00.370Z,15.33
2017-12-06T08:42:28.479Z,17.30
2017-12-06T08:44:57.318Z,20.67
2017-12-06T08:47:25.404Z,16.30
2017-12-06T08:49:53.494Z,17.30
2017-12-06T08:52:22.345Z,15.70
2017-12-06T08:54:50.427Z,16.40
2017-12-06T08:57:18.515Z,16.13
2017-12-06T08:59:47.366Z,15.90
2017-12-06T09:02:15.451Z,15.37
2017-12-06T09:04:43.571Z,15.00
2017-12-06T09:07:11.654Z,15.83
2017-12-06T09:09:39.787Z,16.58
2017-12-06T09:12:07.863Z,16.77
2017-12-06T09:14:36.719Z,17.67
2017-12-06T09:17:04.804Z,16.10
2017-12-06T09:19:32.885Z,16.60
2017-12-06T09:22:01.735Z,18.97
2017-12-06T09:24:29.825Z,18.13
2017-12-06T09:26:57.902Z,16.00
2017-12-06T09:29:26.760Z,16.13
2017-12-06T09:31:54.870Z,15.97
2017-12-06T09:34:22.950Z,16.37
2017-12-06T09:36:51.023Z,15.60
2017-12-06T09:39:19.873Z,15.70
2017-12-06T09:41:47.973Z,14.77
2017-12-06T09:44:16.834Z,15.97
2017-12-06T09:46:44.923Z,15.60
2017-12-06T09:49:13.785Z,16.40
2017-12-06T09:51:41.905Z,15.90
2017-12-06T09:54:09.970Z,15.97
2017-12-06T09:56:38.822Z,15.90
2017-12-06T09:59:06.904Z,15.87
2017-12-06T10:01:34.995Z,16.33
2017-12-06T10:04:03.853Z,16.47
2017-12-06T10:06:31.954Z,16.67
2017-12-06T10:09:00.804Z,15.70
2017-12-06T10:11:28.888Z,16.60
2017-12-06T10:13:57.009Z,15.87
2017-12-06T10:16:25.828Z,16.47
2017-12-06T10:18:53.915Z,15.33
2017-12-06T10:21:21.996Z,15.40
2017-12-06T10:23:50.076Z,16.00
2017-12-06T10:26:18.932Z,14.60
2017-12-06T10:28:47.020Z,16.10
2017-12-06T10:31:15.103Z,15.03
2017-12-06T10:33:43.963Z,15.30
2017-12-06T10:36:12.055Z,14.57
2017-12-06T10:38:40.148Z,16.00
2017-12-06T10:41:08.230Z,15.03
2017-12-06T10:43:36.328Z,16.13
2017-12-06T10:46:04.424Z,15.77
2017-12-06T10:48:32.511Z,15.87
2017-12-06T10:51:01.359Z,15.53
2017-12-06T10:53:29.456Z,16.10
2017-12-06T10:55:57.540Z,16.20
2017-12-06T10:58:26.407Z,15.20
2017-12-06T11:00:54.496Z,13.83
2017-12-06T11:03:23.348Z,15.37
2017-12-06T11:05:51.438Z,15.53
2017-12-06T11:08:19.528Z,16.90
2017-12-06T11:10:48.383Z,15.27
2017-12-06T11:13:16.463Z,16.07
2017-12-06T11:15:44.545Z,14.57
2017-12-06T11:18:12.631Z,16.07
2017-12-06T11:20:41.492Z,16.03
2017-12-06T11:23:09.601Z,16.87
2017-12-06T11:25:37.684Z,16.27
2017-12-06T11:28:05.781Z,17.20
2017-12-06T11:30:33.872Z,15.20
2017-12-06T11:33:01.944Z,15.67
2017-12-06T11:35:30.033Z,18.30
2017-12-06T11:37:58.880Z,14.73
2017-12-06T11:40:26.976Z,15.50
2017-12-06T11:42:55.064Z,15.57
2017-12-06T11:45:23.920Z,15.50
2017-12-06T11:47:52.000Z,15.23
2017-12-06T11:50:20.090Z,15.13
2017-12-06T11:52:48.946Z,16.10
2017-12-06T11:55:17.039Z,15.30
2017-12-06T11:57:45.123Z,16.00
2017-12-06T12:00:14.013Z,13.63
2017-12-06T12:02:42.850Z,16.50
2017-12-06T12:05:10.939Z,15.00
2017-12-06T12:07:39.038Z,14.17
2017-12-06T12:10:07.899Z,15.43
2017-12-06T12:12:35.992Z,15.00
2017-12-06T12:15:04.850Z,14.33
2017-12-06T12:17:32.940Z,14.63
2017-12-06T12:20:01.028Z,15.60
2017-12-06T12:22:29.891Z,14.87
2017-12-06T12:24:57.981Z,15.20
2017-12-06T12:27:26.832Z,17.03
2017-12-06T12:29:54.919Z,14.27
2017-12-06T12:32:23.025Z,13.70
2017-12-06T12:34:51.864Z,14.40
2017-12-06T12:37:19.971Z,14.97
2017-12-06T12:39:49.324Z,13.93
2017-12-06T12:42:17.411Z,14.00
2017-12-06T12:44:45.495Z,14.77
2017-12-06T12:47:13.581Z,14.33
2017-12-06T12:49:42.443Z,13.23
2017-12-06T12:52:10.523Z,16.20
2017-12-06T12:54:38.619Z,13.30
2017-12-06T12:57:07.469Z,14.13
2017-12-06T12:59:35.555Z,12.90
2017-12-06T13:02:04.407Z,13.30
2017-12-06T13:04:32.509Z,14.60
2017-12-06T13:07:00.586Z,13.83
2017-12-06T13:09:28.665Z,12.63
2017-12-06T13:11:57.520Z,11.80
2017-12-06T13:14:25.618Z,17.70
2017-12-06T13:16:53.879Z,14.70
2017-12-06T13:19:21.995Z,14.97
2017-12-06T13:21:50.078Z,12.30
2017-12-06T13:24:18.179Z,11.70
2017-12-06T13:26:46.260Z,12.97
2017-12-06T13:29:14.433Z,11.70
2017-12-06T13:31:42.511Z,12.37
2017-12-06T13:34:10.605Z,11.30
2017-12-06T13:36:42.404Z,12.50
2017-12-06T13:39:10.487Z,11.40
2017-12-06T13:41:38.580Z,13.30
2017-12-06T13:44:07.431Z,13.33
2017-12-06T13:46:35.519Z,12.60
2017-12-06T13:49:03.612Z,11.63
2017-12-06T13:51:32.483Z,10.70
2017-12-06T13:54:00.570Z,12.93
2017-12-06T13:56:29.435Z,11.37
2017-12-06T13:58:57.525Z,13.40
2017-12-06T14:01:26.374Z,15.10
2017-12-06T14:03:54.463Z,11.40
2017-12-06T14:06:22.560Z,12.93
2017-12-06T14:08:51.411Z,14.07
2017-12-06T14:11:19.502Z,13.97
2017-12-06T14:13:47.607Z,13.20
2017-12-06T14:16:22.168Z,13.37
2017-12-06T14:18:50.257Z,15.10
2017-12-06T14:21:18.348Z,14.77
2017-12-06T14:23:47.188Z,15.20
2017-12-06T14:26:15.759Z,13.13
2017-12-06T14:28:43.837Z,12.67
2017-12-06T14:31:11.928Z,11.30
2017-12-06T14:33:40.026Z,10.43
2017-12-06T14:36:08.882Z,11.13
2017-12-06T14:38:36.981Z,11.67
2017-12-06T14:41:05.849Z,11.53
2017-12-06T14:43:33.938Z,11.60
2017-12-06T14:46:02.794Z,11.83
2017-12-06T14:48:30.894Z,11.60
2017-12-06T14:50:59.743Z,11.60
2017-12-06T14:53:27.840Z,11.07
2017-12-06T14:55:55.926Z,11.13
2017-12-06T14:58:24.861Z,12.00
2017-12-06T15:00:53.656Z,13.27
2017-12-06T15:03:21.743Z,13.70
2017-12-06T15:05:49.831Z,12.93
2017-12-06T15:08:18.692Z,12.40
2017-12-06T15:10:46.775Z,11.83
2017-12-06T15:13:14.875Z,12.00
2017-12-06T15:15:43.724Z,11.33
2017-12-06T15:18:11.824Z,11.00
2017-12-06T15:20:40.691Z,10.67
2017-12-06T15:23:08.792Z,10.90
2017-12-06T15:25:37.634Z,10.77
2017-12-06T15:28:05.731Z,10.93
2017-12-06T15:30:33.907Z,11.20
2017-12-06T15:33:01.987Z,9.37
2017-12-06T15:35:30.839Z,12.23
2017-12-06T15:37:58.932Z,11.20
2017-12-06T15:40:27.793Z,11.23
2017-12-06T15:42:55.925Z,12.90
2017-12-06T15:45:24.009Z,13.83
2017-12-06T15:47:52.132Z,15.13
2017-12-06T15:50:20.199Z,18.50
2017-12-06T15:52:48.271Z,10.70
2017-12-06T15:55:17.131Z,13.20
2017-12-06T15:57:45.232Z,12.10
2017-12-06T16:00:14.115Z,13.80
2017-12-06T16:02:42.198Z,14.63
2017-12-06T16:05:11.063Z,13.97
2017-12-06T16:07:39.148Z,13.27
2017-12-06T16:10:08.000Z,13.77
2017-12-06T16:12:36.204Z,14.97
2017-12-06T16:15:05.190Z,12.77
2017-12-06T16:17:33.466Z,13.00
2017-12-06T16:20:03.205Z,12.80
2017-12-06T16:22:31.306Z,12.40
2017-12-06T16:24:59.607Z,12.13
2017-12-06T16:27:27.699Z,12.80
2017-12-06T16:29:56.547Z,12.83
2017-12-06T16:32:24.637Z,13.50
2017-12-06T16:35:04.517Z,12.07
2017-12-06T16:37:32.609Z,12.80
2017-12-06T16:40:00.699Z,13.20
2017-12-06T16:42:29.120Z,13.00
2017-12-06T16:44:57.978Z,12.77
2017-12-06T16:47:26.051Z,14.13
2017-12-06T16:49:54.142Z,13.47
2017-12-06T16:52:22.997Z,11.60
2017-12-06T16:54:51.092Z,14.03
2017-12-06T16:57:19.952Z,13.07
2017-12-06T16:59:48.058Z,14.90
2017-12-06T17:02:17.276Z,21.03
2017-12-06T17:04:45.370Z,21.97
2017-12-06T17:07:13.447Z,26.80
2017-12-06T17:09:41.640Z,27.70
2017-12-06T17:12:09.791Z,36.67
2017-12-06T17:14:38.087Z,16.47
2017-12-06T17:17:06.186Z,30.07
2017-12-06T17:19:35.050Z,15.00
2017-12-06T17:22:03.162Z,25.27
2017-12-06T17:24:31.269Z,14.63
2017-12-06T17:26:59.378Z,18.97
2017-12-06T17:29:39.300Z,12.03
2017-12-06T17:32:07.395Z,21.03
2017-12-06T17:34:35.487Z,27.67
2017-12-06T17:37:04.407Z,18.77
2017-12-06T17:39:32.624Z,10.87
2017-12-06T17:42:00.703Z,19.60
2017-12-06T17:44:29.566Z,16.53
2017-12-06T17:46:57.652Z,14.70
2017-12-06T17:49:25.747Z,14.00
2017-12-06T17:51:53.850Z,13.10
2017-12-06T17:54:21.971Z,12.17
2017-12-06T17:56:50.841Z,15.27
2017-12-06T17:59:18.992Z,23.50
2017-12-06T18:01:47.080Z,14.40
2017-12-06T18:07:05.825Z,18.80
2017-12-06T18:09:33.935Z,13.10
2017-12-06T18:12:02.187Z,12.50
2017-12-06T18:14:31.779Z,13.10
2017-12-06T18:16:59.972Z,18.17
2017-12-06T18:19:28.148Z,15.77
2017-12-06T18:21:57.055Z,14.70
2017-12-06T18:24:25.148Z,13.50
2017-12-06T18:26:53.239Z,12.60
2017-12-06T18:29:21.346Z,11.10
2017-12-06T18:31:49.440Z,10.63
2017-12-06T18:34:17.515Z,9.67
2017-12-06T18:36:45.595Z,10.07
2017-12-06T18:39:13.672Z,10.37
2017-12-06T18:41:41.762Z,9.80
2017-12-06T18:44:09.839Z,10.30
2017-12-06T18:46:37.943Z,9.70
2017-12-06T18:49:06.018Z,9.87
2017-12-06T18:51:34.884Z,9.27
2017-12-06T18:54:03.010Z,9.67
2017-12-06T18:56:31.091Z,8.20
2017-12-06T18:58:59.181Z,8.77
2017-12-06T19:01:27.266Z,24.97
2017-12-06T19:03:55.351Z,11.90
2017-12-06T19:06:23.432Z,15.23
2017-12-06T19:08:52.294Z,32.67
2017-12-06T19:11:20.375Z,13.37
2017-12-06T19:13:48.471Z,15.20
2017-12-06T19:16:16.554Z,9.13
2017-12-06T19:18:44.643Z,9.83
2017-12-06T19:21:12.726Z,18.53
2017-12-06T19:23:40.820Z,11.37
2017-12-06T19:26:08.903Z,10.50
2017-12-06T19:28:37.752Z,12.60
2017-12-06T19:31:05.851Z,9.20
2017-12-06T19:33:33.947Z,11.63
2017-12-06T19:36:02.795Z,19.30
2017-12-06T19:38:31.658Z,13.00
2017-12-06T19:40:59.843Z,17.50
2017-12-06T19:43:27.935Z,12.70
2017-12-06T19:45:56.120Z,9.70
2017-12-06T19:48:24.705Z,12.57
2017-12-06T19:50:52.842Z,16.57
2017-12-06T19:53:21.066Z,14.47
2017-12-06T19:55:49.180Z,13.20
2017-12-06T19:58:17.283Z,9.97
2017-12-06T20:00:45.491Z,9.30
2017-12-06T20:03:13.927Z,9.07
2017-12-06T20:05:42.815Z,14.40
2017-12-06T20:08:10.909Z,8.87
2017-12-06T20:10:39.152Z,8.03
2017-12-06T20:13:07.326Z,17.00
2017-12-06T20:15:35.429Z,10.23
2017-12-06T20:18:03.489Z,10.17
2017-12-06T20:20:32.361Z,10.83
2017-12-06T20:23:00.466Z,14.67
2017-12-06T20:25:28.551Z,8.83
2017-12-06T20:27:56.978Z,9.77
2017-12-06T20:30:25.153Z,10.07
2017-12-06T20:32:53.295Z,9.10
2017-12-06T20:35:21.699Z,6.93
2017-12-06T20:37:49.867Z,10.20
2017-12-06T20:40:17.942Z,9.00
2017-12-06T20:42:46.799Z,13.80
2017-12-06T20:45:14.887Z,13.77
2017-12-06T20:47:43.027Z,5.60
2017-12-06T20:50:11.395Z,8.07
2017-12-06T20:52:39.523Z,6.33
2017-12-06T20:55:07.568Z,8.20
2017-12-06T20:57:36.418Z,6.10
2017-12-06T21:00:04.619Z,7.00
2017-12-06T21:02:33.520Z,5.10
2017-12-06T21:05:01.656Z,6.27
2017-12-06T21:07:29.751Z,6.77
2017-12-06T21:09:57.840Z,6.57
2017-12-06T21:12:26.043Z,6.40
2017-12-06T21:14:54.902Z,6.40
2017-12-06T21:17:23.812Z,6.20
2017-12-06T21:19:52.401Z,6.80
2017-12-06T21:22:20.906Z,6.07
2017-12-06T21:24:49.043Z,6.53
2017-12-06T21:27:17.120Z,5.83
2017-12-06T21:29:45.207Z,6.17
2017-12-06T21:32:13.553Z,8.00
2017-12-06T21:34:41.934Z,6.53
2017-12-06T21:37:10.202Z,6.73
2017-12-06T21:39:38.291Z,6.40
2017-12-06T21:42:06.383Z,7.07
2017-12-06T21:44:34.541Z,7.40
2017-12-06T21:47:03.019Z,7.20
2017-12-06T21:49:31.264Z,7.70
2017-12-06T21:51:59.328Z,6.90
2017-12-06T21:54:28.174Z,8.30
2017-12-06T21:56:56.260Z,8.80
2017-12-06T21:59:24.365Z,11.10
2017-12-06T22:01:52.615Z,12.13
2017-12-06T22:04:22.207Z,11.90
2017-12-06T22:06:50.286Z,10.37
2017-12-06T22:09:18.387Z,9.93
2017-12-06T22:11:46.483Z,10.37
2017-12-06T22:14:14.561Z,11.40
2017-12-06T22:16:42.653Z,18.60
2017-12-06T22:19:11.015Z,11.93
2017-12-06T22:21:39.104Z,21.03
2017-12-06T22:24:07.287Z,24.47
2017-12-06T22:26:35.371Z,23.03
2017-12-06T22:29:03.461Z,13.57
2017-12-06T22:31:32.316Z,13.93
2017-12-06T22:34:01.907Z,14.57
2017-12-06T22:36:30.019Z,21.90
2017-12-06T22:38:58.134Z,13.00
2017-12-06T22:41:26.340Z,13.80
2017-12-06T22:43:54.460Z,11.40
2017-12-06T22:46:22.548Z,20.00
2017-12-06T22:48:50.653Z,11.50
2017-12-06T22:51:18.790Z,10.17
2017-12-06T22:53:46.871Z,10.50
2017-12-06T22:56:14.960Z,9.60
2017-12-06T22:58:44.107Z,9.33
2017-12-06T23:01:12.191Z,9.20
2017-12-06T23:03:40.372Z,10.90
2017-12-06T23:06:08.513Z,10.00
2017-12-06T23:08:36.554Z,10.20
2017-12-06T23:11:05.428Z,10.00
2017-12-06T23:13:33.523Z,10.13
2017-12-06T23:16:02.376Z,9.67
2017-12-06T23:18:31.280Z,10.23
2017-12-06T23:20:59.358Z,10.77
2017-12-06T23:23:28.216Z,10.10
2017-12-06T23:25:56.306Z,10.27
2017-12-06T23:28:25.162Z,8.65
2017-12-06T23:30:53.538Z,9.40
2017-12-06T23:33:21.628Z,8.30
2017-12-06T23:35:49.715Z,9.30
2017-12-06T23:38:18.569Z,10.70
2017-12-06T23:40:46.651Z,9.20
2017-12-06T23:43:14.761Z,8.97
2017-12-06T23:45:43.590Z,9.40
2017-12-06T23:48:11.672Z,10.43
2017-12-06T23:50:39.761Z,9.80
2017-12-06T23:53:08.115Z,11.17
2017-12-06T23:55:36.549Z,10.03
2017-12-06T23:58:04.802Z,8.83
